St Joseph — WDC2814 — position and weather

sailwx.info

Track history (hours):
 
Tides and Currents Weather Stations Pressure Air Temp Water Temp Dewpoint Dewpoint Depression Visibility Wind Speed Wind Dir Waves Ship Positions

St Joseph

Owner: Marquette Transportation Company Gulf-Inland, LLC, Jefferson, LA. More information available from US FCC via Universal Licensing System and Coast Guard Vessel Documentation Center.

Last reported at 2018-May-18 10:06 UTC. Time now 2018-May-21 05:17 UTC.
Position N 30°23' W 091°14'.

Length 233 m; draft 2.9 m.

Type: Tug. MMSI: 366998040.

Date/timePositionNaut miles runAvg speedWind from/ knotsBaromVisibWave heightAir tempDewpointWater temp
2018-May-18 10:06N 30°23' W 091°14'  
2018-May-15 12:49N 29°48' W 092°15'2 4.6
2018-May-15 12:28N 29°49' W 092°16'2 4.4
2018-May-15 11:57N 29°50' W 092°18'2 4.5
2018-May-15 11:24N 29°51' W 092°21'2 4.0
2018-May-15 11:00N 29°52' W 092°22'2 4.4
2018-May-15 10:30N 29°53' W 092°24'2 4.7
2018-May-15 10:00N 29°54' W 092°27'2 4.7
2018-May-15 09:30N 29°54' W 092°30'2 4.7
2018-May-15 08:59N 29°54' W 092°32'2 4.3
2018-May-15 08:30N 29°55' W 092°35'2 4.8
2018-May-15 08:00N 29°55' W 092°37'2 4.6
2018-May-15 07:30N 29°56' W 092°40'2 4.5
2018-May-15 07:00N 29°57' W 092°42'2 4.4
2018-May-15 06:30N 29°58' W 092°45'2 4.6
2018-May-15 06:00N 29°58' W 092°47'2 4.8
2018-May-15 05:30N 29°58' W 092°50'2 4.8
2018-May-15 04:59N 29°57' W 092°53'2 4.6
2018-May-15 04:30N 29°56' W 092°55'2 4.5
2018-May-15 04:00N 29°56' W 092°57'2 4.6
2018-May-15 03:30N 29°56' W 093°00'2 4.7
2018-May-15 03:00N 29°56' W 093°03'2 4.5
2018-May-15 02:30N 29°56' W 093°05'2 4.6
2018-May-15 02:00N 29°56' W 093°08'2 4.2
2018-May-15 01:30N 29°57' W 093°10'2 4.6
2018-May-15 01:00N 29°59' W 093°12'2 4.4
2018-May-15 00:30N 30°00' W 093°14'2 4.2
2018-May-15 00:00N 30°02' W 093°15'2 4.3
2018-May-14 23:30N 30°04' W 093°16'2 3.6
2018-May-14 22:59N 30°05' W 093°18'0 0.7
2018-May-14 22:29N 30°06' W 093°18'1 1.4
2018-May-14 21:59N 30°06' W 093°18'0 0.2
2018-May-14 21:29N 30°06' W 093°18'0 0.0
2018-May-14 20:59N 30°06' W 093°18'0 0.0
2018-May-14 20:29N 30°06' W 093°18'0 0.0
2018-May-14 19:59N 30°06' W 093°18'0 0.0
2018-May-14 19:29N 30°06' W 093°18'0 0.0
2018-May-14 18:59N 30°06' W 093°18'0 0.0
2018-May-14 18:29N 30°06' W 093°18'0 0.0
2018-May-14 17:59N 30°06' W 093°18'0 0.0
2018-May-14 17:05N 30°06' W 093°18'0 0.0
2018-May-14 16:59N 30°06' W 093°18'0 0.0
2018-May-14 16:29N 30°06' W 093°18'0 0.0
2018-May-14 15:59N 30°06' W 093°18'1 2.8
2018-May-14 15:30N 30°05' W 093°20'2 4.1
2018-May-14 15:00N 30°04' W 093°21'2 3.5
2018-May-14 14:30N 30°04' W 093°23'2 4.8
2018-May-14 14:00N 30°04' W 093°26'2 4.8
2018-May-14 13:30N 30°04' W 093°29'2 4.6
2018-May-14 13:00N 30°04' W 093°31'2 4.6
2018-May-14 12:30N 30°04' W 093°34'2 4.8
2018-May-14 12:00N 30°04' W 093°37'3 5.2
2018-May-14 11:31N 30°04' W 093°40'2 4.4
2018-May-14 11:00N 30°03' W 093°42'2 5.0
2018-May-14 10:30N 30°02' W 093°44'3 5.6
2018-May-14 10:00N 29°60' W 093°47'3 5.7
2018-May-14 09:30N 29°59' W 093°50'2 4.8
2018-May-14 09:00N 29°57' W 093°52'3 6.3
2018-May-14 08:30N 29°54' W 093°54'3 5.9
2018-May-14 08:00N 29°52' W 093°56'3 5.3
2018-May-14 07:30N 29°50' W 093°57'2 4.0
2018-May-14 07:00N 29°49' W 093°59'2 4.6
2018-May-14 06:30N 29°47' W 094°01'2 4.5
2018-May-14 06:00N 29°46' W 094°03'2 4.1
2018-May-14 05:30N 29°45' W 094°05'2 4.7
2018-May-14 05:00N 29°43' W 094°07'2 4.9
2018-May-14 04:30N 29°42' W 094°09'2 4.8
2018-May-14 04:00N 29°41' W 094°12'2 4.7
2018-May-14 03:30N 29°40' W 094°14'2 4.6
2018-May-14 03:00N 29°39' W 094°17'2 3.4
2018-May-14 02:30N 29°38' W 094°19'2 4.4
2018-May-14 02:00N 29°37' W 094°21'2 4.3
2018-May-14 01:28N 29°36' W 094°23'2 3.8
2018-May-14 01:00N 29°35' W 094°25'2 3.6
2018-May-14 00:30N 29°34' W 094°26'2 4.4
2018-May-14 00:00N 29°33' W 094°28'15 2.8
2018-May-13 18:29N 29°25' W 094°44'2 4.6
2018-May-13 17:59N 29°24' W 094°46'3 5.2
2018-May-13 17:29N 29°22' W 094°48'6 6.8
2018-May-13 16:36N 29°27' W 094°51'2 6.8
2018-May-13 16:15N 29°30' W 094°52'2 6.6
2018-May-13 16:00N 29°31' W 094°53'3 6.6
2018-May-13 15:30N 29°34' W 094°55'3 6.1
2018-May-13 15:00N 29°36' W 094°57'3 6.5
2018-May-13 14:30N 29°39' W 094°58'3 6.3
2018-May-13 14:00N 29°42' W 095°00'3 5.3
2018-May-13 13:29N 29°44' W 095°03'3 0.2
2018-May-12 21:15N 29°46' W 095°05'1 1.0
2018-May-12 20:28N 29°46' W 095°05'1 0.7
2018-May-12 19:00N 29°47' W 095°04'4 1.3
2018-May-12 16:09N 29°44' W 095°02'1 5.7
2018-May-12 15:54N 29°43' W 095°01'2 5.7
2018-May-12 15:30N 29°41' W 094°59'3 6.4
2018-May-12 15:00N 29°38' W 094°58'3 6.7
2018-May-12 14:30N 29°35' W 094°56'3 6.6
2018-May-12 14:00N 29°33' W 094°54'3 6.8
2018-May-12 13:30N 29°30' W 094°52'8 6.9
2018-May-12 12:21N 29°23' W 094°48'2 5.6
2018-May-12 12:00N 29°23' W 094°46'3 3.9
2018-May-12 11:22N 29°25' W 094°44'14 3.8
2018-May-12 07:37N 29°31' W 094°30'3 5.3
2018-May-12 07:04N 29°34' W 094°28'1 5.6
2018-May-12 06:58N 29°34' W 094°27'2 4.6
2018-May-12 06:28N 29°35' W 094°25'2 5.2
2018-May-12 06:00N 29°36' W 094°22'3 5.8
2018-May-12 05:30N 29°38' W 094°19'3 5.8
2018-May-12 05:00N 29°39' W 094°16'3 5.7
2018-May-12 04:30N 29°40' W 094°14'3 5.6
2018-May-12 04:00N 29°41' W 094°11'2 4.7
2018-May-12 03:30N 29°42' W 094°08'3 5.5
2018-May-12 03:00N 29°44' W 094°06'3 5.4
2018-May-12 02:30N 29°46' W 094°03'3 5.5
2018-May-12 02:00N 29°47' W 094°01'3 5.2
2018-May-12 01:30N 29°49' W 093°59'3 5.7
2018-May-12 01:00N 29°51' W 093°56'3 6.7
2018-May-12 00:30N 29°54' W 093°54'3 6.4
2018-May-12 00:00N 29°57' W 093°52'2 4.6
2018-May-11 23:30N 29°58' W 093°50'3 5.5
2018-May-11 23:00N 29°59' W 093°47'2 3.9
2018-May-11 22:29N 30°01' W 093°46'1 0.9
2018-May-11 21:55N 30°00' W 093°46'2 4.1
2018-May-11 21:30N 30°01' W 093°45'2 4.6
2018-May-11 21:00N 30°03' W 093°43'2 4.7
2018-May-11 20:30N 30°04' W 093°40'2 4.6
2018-May-11 20:01N 30°04' W 093°38'2 4.8
2018-May-11 19:30N 30°04' W 093°35'2 4.8
2018-May-11 19:00N 30°04' W 093°32'2 4.9
2018-May-11 18:30N 30°04' W 093°29'2 4.9
2018-May-11 18:01N 30°04' W 093°26'2 4.9
2018-May-11 17:30N 30°04' W 093°24'2 4.4
2018-May-11 17:00N 30°04' W 093°21'2 3.9
2018-May-11 16:30N 30°05' W 093°20'2 3.4
2018-May-11 15:58N 30°05' W 093°18'1 1.6
2018-May-11 15:30N 30°05' W 093°17'1 1.1
2018-May-11 14:59N 30°04' W 093°16'0 0.0
2018-May-11 14:29N 30°04' W 093°16'0 0.1
2018-May-11 13:59N 30°04' W 093°16'0 0.0
2018-May-11 13:29N 30°04' W 093°16'1 2.4
2018-May-11 13:00N 30°03' W 093°16'2 4.2
2018-May-11 12:30N 30°02' W 093°14'2 4.4
2018-May-11 12:00N 29°60' W 093°13'2 4.9
2018-May-11 11:30N 29°58' W 093°11'2 4.9
2018-May-11 11:01N 29°56' W 093°09'2 4.9
2018-May-11 10:30N 29°56' W 093°07'2 4.6
2018-May-11 10:00N 29°56' W 093°04'  
Track history (hours):
 
Tides and Currents Weather Stations Pressure Air Temp Water Temp Dewpoint Dewpoint Depression Visibility Wind Speed Wind Dir Waves Ship Positions

St Joseph

Owner: Marquette Transportation Company Gulf-Inland, LLC, Jefferson, LA. More information available from US FCC via Universal Licensing System and Coast Guard Vessel Documentation Center.

Last reported at 2018-May-18 10:06 UTC. Time now 2018-May-21 05:17 UTC.
Position N 30°23' W 091°14'.

Length 233 m; draft 2.9 m.

Type: Tug. MMSI: 366998040.

Date/timePositionNaut miles runAvg speedWind from/ knotsBaromVisibWave heightAir tempDewpointWater temp
2018-May-18 10:06N 30°23' W 091°14'  
2018-May-15 12:49N 29°48' W 092°15'2 4.6
2018-May-15 12:28N 29°49' W 092°16'2 4.4
2018-May-15 11:57N 29°50' W 092°18'2 4.5
2018-May-15 11:24N 29°51' W 092°21'2 4.0
2018-May-15 11:00N 29°52' W 092°22'2 4.4
2018-May-15 10:30N 29°53' W 092°24'2 4.7
2018-May-15 10:00N 29°54' W 092°27'2 4.7
2018-May-15 09:30N 29°54' W 092°30'2 4.7
2018-May-15 08:59N 29°54' W 092°32'2 4.3
2018-May-15 08:30N 29°55' W 092°35'2 4.8
2018-May-15 08:00N 29°55' W 092°37'2 4.6
2018-May-15 07:30N 29°56' W 092°40'2 4.5
2018-May-15 07:00N 29°57' W 092°42'2 4.4
2018-May-15 06:30N 29°58' W 092°45'2 4.6
2018-May-15 06:00N 29°58' W 092°47'2 4.8
2018-May-15 05:30N 29°58' W 092°50'2 4.8
2018-May-15 04:59N 29°57' W 092°53'2 4.6
2018-May-15 04:30N 29°56' W 092°55'2 4.5
2018-May-15 04:00N 29°56' W 092°57'2 4.6
2018-May-15 03:30N 29°56' W 093°00'2 4.7
2018-May-15 03:00N 29°56' W 093°03'2 4.5
2018-May-15 02:30N 29°56' W 093°05'2 4.6
2018-May-15 02:00N 29°56' W 093°08'2 4.2
2018-May-15 01:30N 29°57' W 093°10'2 4.6
2018-May-15 01:00N 29°59' W 093°12'2 4.4
2018-May-15 00:30N 30°00' W 093°14'2 4.2
2018-May-15 00:00N 30°02' W 093°15'2 4.3
2018-May-14 23:30N 30°04' W 093°16'2 3.6
2018-May-14 22:59N 30°05' W 093°18'0 0.7
2018-May-14 22:29N 30°06' W 093°18'1 1.4
2018-May-14 21:59N 30°06' W 093°18'0 0.2
2018-May-14 21:29N 30°06' W 093°18'0 0.0
2018-May-14 20:59N 30°06' W 093°18'0 0.0
2018-May-14 20:29N 30°06' W 093°18'0 0.0
2018-May-14 19:59N 30°06' W 093°18'0 0.0
2018-May-14 19:29N 30°06' W 093°18'0 0.0
2018-May-14 18:59N 30°06' W 093°18'0 0.0
2018-May-14 18:29N 30°06' W 093°18'0 0.0
2018-May-14 17:59N 30°06' W 093°18'0 0.0
2018-May-14 17:05N 30°06' W 093°18'0 0.0
2018-May-14 16:59N 30°06' W 093°18'0 0.0
2018-May-14 16:29N 30°06' W 093°18'0 0.0
2018-May-14 15:59N 30°06' W 093°18'1 2.8
2018-May-14 15:30N 30°05' W 093°20'2 4.1
2018-May-14 15:00N 30°04' W 093°21'2 3.5
2018-May-14 14:30N 30°04' W 093°23'2 4.8
2018-May-14 14:00N 30°04' W 093°26'2 4.8
2018-May-14 13:30N 30°04' W 093°29'2 4.6
2018-May-14 13:00N 30°04' W 093°31'2 4.6
2018-May-14 12:30N 30°04' W 093°34'2 4.8
2018-May-14 12:00N 30°04' W 093°37'3 5.2
2018-May-14 11:31N 30°04' W 093°40'2 4.4
2018-May-14 11:00N 30°03' W 093°42'2 5.0
2018-May-14 10:30N 30°02' W 093°44'3 5.6
2018-May-14 10:00N 29°60' W 093°47'3 5.7
2018-May-14 09:30N 29°59' W 093°50'2 4.8
2018-May-14 09:00N 29°57' W 093°52'3 6.3
2018-May-14 08:30N 29°54' W 093°54'3 5.9
2018-May-14 08:00N 29°52' W 093°56'3 5.3
2018-May-14 07:30N 29°50' W 093°57'2 4.0
2018-May-14 07:00N 29°49' W 093°59'2 4.6
2018-May-14 06:30N 29°47' W 094°01'2 4.5
2018-May-14 06:00N 29°46' W 094°03'2 4.1
2018-May-14 05:30N 29°45' W 094°05'2 4.7
2018-May-14 05:00N 29°43' W 094°07'2 4.9
2018-May-14 04:30N 29°42' W 094°09'2 4.8
2018-May-14 04:00N 29°41' W 094°12'2 4.7
2018-May-14 03:30N 29°40' W 094°14'2 4.6
2018-May-14 03:00N 29°39' W 094°17'2 3.4
2018-May-14 02:30N 29°38' W 094°19'2 4.4
2018-May-14 02:00N 29°37' W 094°21'2 4.3
2018-May-14 01:28N 29°36' W 094°23'2 3.8
2018-May-14 01:00N 29°35' W 094°25'2 3.6
2018-May-14 00:30N 29°34' W 094°26'2 4.4
2018-May-14 00:00N 29°33' W 094°28'15 2.8
2018-May-13 18:29N 29°25' W 094°44'2 4.6
2018-May-13 17:59N 29°24' W 094°46'3 5.2
2018-May-13 17:29N 29°22' W 094°48'6 6.8
2018-May-13 16:36N 29°27' W 094°51'2 6.8
2018-May-13 16:15N 29°30' W 094°52'2 6.6
2018-May-13 16:00N 29°31' W 094°53'3 6.6
2018-May-13 15:30N 29°34' W 094°55'3 6.1
2018-May-13 15:00N 29°36' W 094°57'3 6.5
2018-May-13 14:30N 29°39' W 094°58'3 6.3
2018-May-13 14:00N 29°42' W 095°00'3 5.3
2018-May-13 13:29N 29°44' W 095°03'3 0.2
2018-May-12 21:15N 29°46' W 095°05'1 1.0
2018-May-12 20:28N 29°46' W 095°05'1 0.7
2018-May-12 19:00N 29°47' W 095°04'4 1.3
2018-May-12 16:09N 29°44' W 095°02'1 5.7
2018-May-12 15:54N 29°43' W 095°01'2 5.7
2018-May-12 15:30N 29°41' W 094°59'3 6.4
2018-May-12 15:00N 29°38' W 094°58'3 6.7
2018-May-12 14:30N 29°35' W 094°56'3 6.6
2018-May-12 14:00N 29°33' W 094°54'3 6.8
2018-May-12 13:30N 29°30' W 094°52'8 6.9
2018-May-12 12:21N 29°23' W 094°48'2 5.6
2018-May-12 12:00N 29°23' W 094°46'3 3.9
2018-May-12 11:22N 29°25' W 094°44'14 3.8
2018-May-12 07:37N 29°31' W 094°30'3 5.3
2018-May-12 07:04N 29°34' W 094°28'1 5.6
2018-May-12 06:58N 29°34' W 094°27'2 4.6
2018-May-12 06:28N 29°35' W 094°25'2 5.2
2018-May-12 06:00N 29°36' W 094°22'3 5.8
2018-May-12 05:30N 29°38' W 094°19'3 5.8
2018-May-12 05:00N 29°39' W 094°16'3 5.7
2018-May-12 04:30N 29°40' W 094°14'3 5.6
2018-May-12 04:00N 29°41' W 094°11'2 4.7
2018-May-12 03:30N 29°42' W 094°08'3 5.5
2018-May-12 03:00N 29°44' W 094°06'3 5.4
2018-May-12 02:30N 29°46' W 094°03'3 5.5
2018-May-12 02:00N 29°47' W 094°01'3 5.2
2018-May-12 01:30N 29°49' W 093°59'3 5.7
2018-May-12 01:00N 29°51' W 093°56'3 6.7
2018-May-12 00:30N 29°54' W 093°54'3 6.4
2018-May-12 00:00N 29°57' W 093°52'2 4.6
2018-May-11 23:30N 29°58' W 093°50'3 5.5
2018-May-11 23:00N 29°59' W 093°47'2 3.9
2018-May-11 22:29N 30°01' W 093°46'1 0.9
2018-May-11 21:55N 30°00' W 093°46'2 4.1
2018-May-11 21:30N 30°01' W 093°45'2 4.6
2018-May-11 21:00N 30°03' W 093°43'2 4.7
2018-May-11 20:30N 30°04' W 093°40'2 4.6
2018-May-11 20:01N 30°04' W 093°38'2 4.8
2018-May-11 19:30N 30°04' W 093°35'2 4.8
2018-May-11 19:00N 30°04' W 093°32'2 4.9
2018-May-11 18:30N 30°04' W 093°29'2 4.9
2018-May-11 18:01N 30°04' W 093°26'2 4.9
2018-May-11 17:30N 30°04' W 093°24'2 4.4
2018-May-11 17:00N 30°04' W 093°21'2 3.9
2018-May-11 16:30N 30°05' W 093°20'2 3.4
2018-May-11 15:58N 30°05' W 093°18'1 1.6
2018-May-11 15:30N 30°05' W 093°17'1 1.1
2018-May-11 14:59N 30°04' W 093°16'0 0.0
2018-May-11 14:29N 30°04' W 093°16'0 0.1
2018-May-11 13:59N 30°04' W 093°16'0 0.0
2018-May-11 13:29N 30°04' W 093°16'1 2.4
2018-May-11 13:00N 30°03' W 093°16'2 4.2
2018-May-11 12:30N 30°02' W 093°14'2 4.4
2018-May-11 12:00N 29°60' W 093°13'2 4.9
2018-May-11 11:30N 29°58' W 093°11'2 4.9
2018-May-11 11:01N 29°56' W 093°09'2 4.9
2018-May-11 10:30N 29°56' W 093°07'2 4.6
2018-May-11 10:00N 29°56' W 093°04'  

Dump ship's entire track history